sensor_id;sensor_type;location;lat;lon;timestamp;temperature;humidity
56725;DHT22;42608;52.776;6.968;2023-03-01T00:01:10;1.20;99.90
56725;DHT22;42608;52.776;6.968;2023-03-01T00:03:36;1.20;99.90
56725;DHT22;42608;52.776;6.968;2023-03-01T00:06:02;1.10;99.90
56725;DHT22;42608;52.776;6.968;2023-03-01T00:08:28;1.10;99.90
56725;DHT22;42608;52.776;6.968;2023-03-01T00:11:09;1.00;99.90
56725;DHT22;42608;52.776;6.968;2023-03-01T00:13:35;0.90;99.90
56725;DHT22;42608;52.776;6.968;2023-03-01T00:16:04;0.80;99.90
56725;DHT22;42608;52.776;6.968;2023-03-01T00:18:30;0.80;99.90
56725;DHT22;42608;52.776;6.968;2023-03-01T00:20:56;0.80;99.90
56725;DHT22;42608;52.776;6.968;2023-03-01T00:23:22;0.80;99.90
56725;DHT22;42608;52.776;6.968;2023-03-01T00:25:47;0.70;99.90
56725;DHT22;42608;52.776;6.968;2023-03-01T00:28:13;0.80;99.90
56725;DHT22;42608;52.776;6.968;2023-03-01T00:30:39;0.70;99.90
56725;DHT22;42608;52.776;6.968;2023-03-01T00:33:04;0.70;99.90
56725;DHT22;42608;52.776;6.968;2023-03-01T00:35:31;0.70;99.90
56725;DHT22;42608;52.776;6.968;2023-03-01T00:37:57;0.70;99.90
56725;DHT22;42608;52.776;6.968;2023-03-01T00:40:26;0.70;99.90
56725;DHT22;42608;52.776;6.968;2023-03-01T00:42:52;0.70;99.90
56725;DHT22;42608;52.776;6.968;2023-03-01T00:45:18;0.70;99.90
56725;DHT22;42608;52.776;6.968;2023-03-01T00:47:44;0.70;99.90
56725;DHT22;42608;52.776;6.968;2023-03-01T00:50:09;0.70;99.90
56725;DHT22;42608;52.776;6.968;2023-03-01T00:52:35;0.60;99.90
56725;DHT22;42608;52.776;6.968;2023-03-01T00:55:01;0.60;99.90
56725;DHT22;42608;52.776;6.968;2023-03-01T00:57:26;0.60;99.90
56725;DHT22;42608;52.776;6.968;2023-03-01T00:59:52;0.60;99.90
56725;DHT22;42608;52.776;6.968;2023-03-01T01:02:18;0.60;99.90
56725;DHT22;42608;52.776;6.968;2023-03-01T01:04:44;0.50;99.90
56725;DHT22;42608;52.776;6.968;2023-03-01T01:07:10;0.50;99.90
56725;DHT22;42608;52.776;6.968;2023-03-01T01:09:35;0.50;99.90
56725;DHT22;42608;52.776;6.968;2023-03-01T01:12:02;0.40;99.90
56725;DHT22;42608;52.776;6.968;2023-03-01T01:14:27;0.40;99.90
56725;DHT22;42608;52.776;6.968;2023-03-01T01:16:53;0.30;99.90
56725;DHT22;42608;52.776;6.968;2023-03-01T01:19:19;0.30;99.90
56725;DHT22;42608;52.776;6.968;2023-03-01T01:21:45;0.20;99.90
56725;DHT22;42608;52.776;6.968;2023-03-01T01:24:11;0.30;99.90
56725;DHT22;42608;52.776;6.968;2023-03-01T01:26:37;0.20;99.90
56725;DHT22;42608;52.776;6.968;2023-03-01T01:29:03;0.20;99.90
56725;DHT22;42608;52.776;6.968;2023-03-01T01:31:29;0.10;99.90
56725;DHT22;42608;52.776;6.968;2023-03-01T01:33:55;0.10;99.90
56725;DHT22;42608;52.776;6.968;2023-03-01T01:36:21;0.10;99.90
56725;DHT22;42608;52.776;6.968;2023-03-01T01:38:46;0.10;99.90
56725;DHT22;42608;52.776;6.968;2023-03-01T01:41:12;0.10;99.90
56725;DHT22;42608;52.776;6.968;2023-03-01T01:43:42;0.00;99.90
56725;DHT22;42608;52.776;6.968;2023-03-01T01:48:41;0.00;99.90
56725;DHT22;42608;52.776;6.968;2023-03-01T01:51:18;0.00;99.90
56725;DHT22;42608;52.776;6.968;2023-03-01T01:53:45;0.00;99.90
56725;DHT22;42608;52.776;6.968;2023-03-01T01:56:12;0.00;99.90
56725;DHT22;42608;52.776;6.968;2023-03-01T01:58:38;0.00;99.90
56725;DHT22;42608;52.776;6.968;2023-03-01T02:01:04;0.00;99.90
56725;DHT22;42608;52.776;6.968;2023-03-01T02:03:31;0.00;99.90
56725;DHT22;42608;52.776;6.968;2023-03-01T02:06:06;-0.10;99.90
56725;DHT22;42608;52.776;6.968;2023-03-01T02:08:33;-0.10;99.90
56725;DHT22;42608;52.776;6.968;2023-03-01T02:11:00;-0.10;99.90
56725;DHT22;42608;52.776;6.968;2023-03-01T02:13:26;-0.10;99.90
56725;DHT22;42608;52.776;6.968;2023-03-01T02:15:52;-0.10;99.90
56725;DHT22;42608;52.776;6.968;2023-03-01T02:18:18;-0.10;99.90
56725;DHT22;42608;52.776;6.968;2023-03-01T02:23:17;-0.10;99.90
56725;DHT22;42608;52.776;6.968;2023-03-01T02:30:48;-0.10;99.90
56725;DHT22;42608;52.776;6.968;2023-03-01T02:33:34;-0.10;99.90
56725;DHT22;42608;52.776;6.968;2023-03-01T02:36:02;-0.20;99.90
56725;DHT22;42608;52.776;6.968;2023-03-01T02:38:29;-0.10;99.90
56725;DHT22;42608;52.776;6.968;2023-03-01T02:40:55;-0.10;99.90
56725;DHT22;42608;52.776;6.968;2023-03-01T02:43:22;-0.20;99.90
56725;DHT22;42608;52.776;6.968;2023-03-01T02:45:49;-0.20;99.90
56725;DHT22;42608;52.776;6.968;2023-03-01T02:48:16;-0.20;99.90
56725;DHT22;42608;52.776;6.968;2023-03-01T02:53:17;-0.20;99.90
56725;DHT22;42608;52.776;6.968;2023-03-01T02:55:47;-0.20;99.90
56725;DHT22;42608;52.776;6.968;2023-03-01T02:58:12;-0.20;99.90
56725;DHT22;42608;52.776;6.968;2023-03-01T03:00:39;-0.20;99.90
56725;DHT22;42608;52.776;6.968;2023-03-01T03:03:09;-0.20;99.90
56725;DHT22;42608;52.776;6.968;2023-03-01T03:05:35;-0.20;99.90
56725;DHT22;42608;52.776;6.968;2023-03-01T03:08:02;-0.20;99.90
56725;DHT22;42608;52.776;6.968;2023-03-01T03:10:33;-0.20;99.90
56725;DHT22;42608;52.776;6.968;2023-03-01T03:13:06;-0.20;99.90
56725;DHT22;42608;52.776;6.968;2023-03-01T03:15:32;-0.20;99.90
56725;DHT22;42608;52.776;6.968;2023-03-01T03:18:01;-0.20;99.90
56725;DHT22;42608;52.776;6.968;2023-03-01T03:20:27;-0.20;99.90
56725;DHT22;42608;52.776;6.968;2023-03-01T03:22:53;-0.30;99.90
56725;DHT22;42608;52.776;6.968;2023-03-01T03:25:20;-0.30;99.90
56725;DHT22;42608;52.776;6.968;2023-03-01T03:27:46;-0.30;99.90
56725;DHT22;42608;52.776;6.968;2023-03-01T03:30:14;-0.30;99.90
56725;DHT22;42608;52.776;6.968;2023-03-01T03:32:40;-0.40;99.90
56725;DHT22;42608;52.776;6.968;2023-03-01T03:35:07;-0.40;99.90
56725;DHT22;42608;52.776;6.968;2023-03-01T03:37:43;-0.50;99.90
56725;DHT22;42608;52.776;6.968;2023-03-01T03:40:30;-0.50;99.90
56725;DHT22;42608;52.776;6.968;2023-03-01T03:42:56;-0.50;99.90
56725;DHT22;42608;52.776;6.968;2023-03-01T03:45:22;-0.50;99.90
56725;DHT22;42608;52.776;6.968;2023-03-01T03:47:47;-0.60;99.90
56725;DHT22;42608;52.776;6.968;2023-03-01T03:50:14;-0.60;99.90
56725;DHT22;42608;52.776;6.968;2023-03-01T03:52:39;-0.60;99.90
56725;DHT22;42608;52.776;6.968;2023-03-01T03:55:06;-0.70;99.90
56725;DHT22;42608;52.776;6.968;2023-03-01T03:57:37;-0.70;99.90
56725;DHT22;42608;52.776;6.968;2023-03-01T04:00:03;-0.70;99.90
56725;DHT22;42608;52.776;6.968;2023-03-01T04:02:46;-0.70;99.90
56725;DHT22;42608;52.776;6.968;2023-03-01T04:05:13;-0.80;99.90
56725;DHT22;42608;52.776;6.968;2023-03-01T04:07:40;-0.80;99.90
56725;DHT22;42608;52.776;6.968;2023-03-01T04:10:07;-0.80;99.90
56725;DHT22;42608;52.776;6.968;2023-03-01T04:12:33;-0.80;99.90
56725;DHT22;42608;52.776;6.968;2023-03-01T04:15:03;-0.90;99.90
56725;DHT22;42608;52.776;6.968;2023-03-01T04:17:38;-0.90;99.90
56725;DHT22;42608;52.776;6.968;2023-03-01T04:20:05;-0.90;99.90
56725;DHT22;42608;52.776;6.968;2023-03-01T04:22:31;-0.90;99.90
56725;DHT22;42608;52.776;6.968;2023-03-01T04:24:57;-0.90;99.90
56725;DHT22;42608;52.776;6.968;2023-03-01T04:27:23;-0.90;99.90
56725;DHT22;42608;52.776;6.968;2023-03-01T04:29:49;-0.90;99.90
56725;DHT22;42608;52.776;6.968;2023-03-01T04:32:14;-0.90;99.90
56725;DHT22;42608;52.776;6.968;2023-03-01T04:34:41;-0.90;99.90
56725;DHT22;42608;52.776;6.968;2023-03-01T04:37:07;-0.90;99.90
56725;DHT22;42608;52.776;6.968;2023-03-01T04:39:32;-0.90;99.90
56725;DHT22;42608;52.776;6.968;2023-03-01T04:41:58;-0.90;99.90
56725;DHT22;42608;52.776;6.968;2023-03-01T04:44:23;-0.90;99.90
56725;DHT22;42608;52.776;6.968;2023-03-01T04:46:49;-0.90;99.90
56725;DHT22;42608;52.776;6.968;2023-03-01T04:49:15;-0.90;99.90
56725;DHT22;42608;52.776;6.968;2023-03-01T04:51:41;-0.90;99.90
56725;DHT22;42608;52.776;6.968;2023-03-01T04:54:06;-0.90;99.90
56725;DHT22;42608;52.776;6.968;2023-03-01T04:56:34;-0.90;99.90
56725;DHT22;42608;52.776;6.968;2023-03-01T04:58:59;-0.90;99.90
56725;DHT22;42608;52.776;6.968;2023-03-01T05:01:25;-0.90;99.90
56725;DHT22;42608;52.776;6.968;2023-03-01T05:03:51;-0.90;99.90
56725;DHT22;42608;52.776;6.968;2023-03-01T05:06:17;-1.00;99.90
56725;DHT22;42608;52.776;6.968;2023-03-01T05:08:43;-1.00;99.90
56725;DHT22;42608;52.776;6.968;2023-03-01T05:11:10;-1.00;99.90
56725;DHT22;42608;52.776;6.968;2023-03-01T05:13:36;-1.10;99.90
56725;DHT22;42608;52.776;6.968;2023-03-01T05:16:03;-1.10;99.90
56725;DHT22;42608;52.776;6.968;2023-03-01T05:18:30;-1.10;99.90
56725;DHT22;42608;52.776;6.968;2023-03-01T05:20:56;-1.20;99.90
56725;DHT22;42608;52.776;6.968;2023-03-01T05:23:26;-1.20;99.90
56725;DHT22;42608;52.776;6.968;2023-03-01T05:25:52;-1.30;99.90
56725;DHT22;42608;52.776;6.968;2023-03-01T05:28:18;-1.30;99.90
56725;DHT22;42608;52.776;6.968;2023-03-01T05:30:44;-1.30;99.90
56725;DHT22;42608;52.776;6.968;2023-03-01T05:33:10;-1.30;99.90
56725;DHT22;42608;52.776;6.968;2023-03-01T05:35:39;-1.30;99.90
56725;DHT22;42608;52.776;6.968;2023-03-01T05:38:04;-1.30;99.90
56725;DHT22;42608;52.776;6.968;2023-03-01T05:40:32;-1.30;99.90
56725;DHT22;42608;52.776;6.968;2023-03-01T05:42:58;-1.30;99.90
56725;DHT22;42608;52.776;6.968;2023-03-01T05:45:24;-1.40;99.90
56725;DHT22;42608;52.776;6.968;2023-03-01T05:47:50;-1.50;99.90
56725;DHT22;42608;52.776;6.968;2023-03-01T05:52:45;-1.50;99.90
56725;DHT22;42608;52.776;6.968;2023-03-01T05:55:11;-1.50;99.90
56725;DHT22;42608;52.776;6.968;2023-03-01T05:57:36;-1.40;99.90
56725;DHT22;42608;52.776;6.968;2023-03-01T06:00:02;-1.40;99.90
56725;DHT22;42608;52.776;6.968;2023-03-01T06:02:28;-1.50;99.90
56725;DHT22;42608;52.776;6.968;2023-03-01T06:04:54;-1.50;99.90
56725;DHT22;42608;52.776;6.968;2023-03-01T06:07:20;-1.50;99.90
56725;DHT22;42608;52.776;6.968;2023-03-01T06:09:46;-1.50;99.90
56725;DHT22;42608;52.776;6.968;2023-03-01T06:12:11;-1.50;99.90
56725;DHT22;42608;52.776;6.968;2023-03-01T06:14:37;-1.50;99.90
56725;DHT22;42608;52.776;6.968;2023-03-01T06:17:03;-1.50;99.90
56725;DHT22;42608;52.776;6.968;2023-03-01T06:19:28;-1.50;99.90
56725;DHT22;42608;52.776;6.968;2023-03-01T06:21:54;-1.60;99.90
56725;DHT22;42608;52.776;6.968;2023-03-01T06:24:19;-1.60;99.90
56725;DHT22;42608;52.776;6.968;2023-03-01T06:26:45;-1.60;99.90
56725;DHT22;42608;52.776;6.968;2023-03-01T06:29:10;-1.60;99.90
56725;DHT22;42608;52.776;6.968;2023-03-01T06:31:36;-1.60;99.90
56725;DHT22;42608;52.776;6.968;2023-03-01T06:34:02;-1.60;99.90
56725;DHT22;42608;52.776;6.968;2023-03-01T06:36:27;-1.60;99.90
56725;DHT22;42608;52.776;6.968;2023-03-01T06:38:53;-1.60;99.90
56725;DHT22;42608;52.776;6.968;2023-03-01T06:41:19;-1.60;99.90
56725;DHT22;42608;52.776;6.968;2023-03-01T06:43:44;-1.60;99.90
56725;DHT22;42608;52.776;6.968;2023-03-01T06:46:10;-1.60;99.90
56725;DHT22;42608;52.776;6.968;2023-03-01T06:48:35;-1.50;99.90
56725;DHT22;42608;52.776;6.968;2023-03-01T06:51:01;-1.60;99.90
56725;DHT22;42608;52.776;6.968;2023-03-01T06:53:27;-1.60;99.90
56725;DHT22;42608;52.776;6.968;2023-03-01T06:55:54;-1.50;99.90
56725;DHT22;42608;52.776;6.968;2023-03-01T06:58:19;-1.50;99.90
56725;DHT22;42608;52.776;6.968;2023-03-01T07:00:45;-1.50;99.90
56725;DHT22;42608;52.776;6.968;2023-03-01T07:03:10;-1.50;99.90
56725;DHT22;42608;52.776;6.968;2023-03-01T07:05:36;-1.60;99.90
56725;DHT22;42608;52.776;6.968;2023-03-01T07:08:01;-1.50;99.90
56725;DHT22;42608;52.776;6.968;2023-03-01T07:10:27;-1.50;99.90
56725;DHT22;42608;52.776;6.968;2023-03-01T07:12:56;-1.50;99.90
56725;DHT22;42608;52.776;6.968;2023-03-01T07:15:22;-1.50;99.90
56725;DHT22;42608;52.776;6.968;2023-03-01T07:17:48;-1.50;99.90
56725;DHT22;42608;52.776;6.968;2023-03-01T07:20:16;-1.50;99.90
56725;DHT22;42608;52.776;6.968;2023-03-01T07:22:42;-1.50;99.90
56725;DHT22;42608;52.776;6.968;2023-03-01T07:25:08;-1.40;99.90
56725;DHT22;42608;52.776;6.968;2023-03-01T07:27:33;-1.40;99.90
56725;DHT22;42608;52.776;6.968;2023-03-01T07:29:59;-1.40;99.90
56725;DHT22;42608;52.776;6.968;2023-03-01T07:32:25;-1.40;99.90
56725;DHT22;42608;52.776;6.968;2023-03-01T07:34:51;-1.30;99.90
56725;DHT22;42608;52.776;6.968;2023-03-01T07:37:16;-1.30;99.90
56725;DHT22;42608;52.776;6.968;2023-03-01T07:39:42;-1.30;99.90
56725;DHT22;42608;52.776;6.968;2023-03-01T07:42:07;-1.30;99.90
56725;DHT22;42608;52.776;6.968;2023-03-01T07:44:33;-1.20;99.90
56725;DHT22;42608;52.776;6.968;2023-03-01T07:47:00;-1.20;99.90
56725;DHT22;42608;52.776;6.968;2023-03-01T07:49:25;-1.20;99.90
56725;DHT22;42608;52.776;6.968;2023-03-01T07:51:54;-1.10;99.90
56725;DHT22;42608;52.776;6.968;2023-03-01T07:54:20;-1.10;99.90
56725;DHT22;42608;52.776;6.968;2023-03-01T07:56:45;-1.00;99.90
56725;DHT22;42608;52.776;6.968;2023-03-01T07:59:11;-1.00;99.90
56725;DHT22;42608;52.776;6.968;2023-03-01T08:01:37;-1.00;99.90
56725;DHT22;42608;52.776;6.968;2023-03-01T08:04:02;-0.90;99.90
56725;DHT22;42608;52.776;6.968;2023-03-01T08:06:29;-0.90;99.90
56725;DHT22;42608;52.776;6.968;2023-03-01T08:08:55;-0.90;99.90
56725;DHT22;42608;52.776;6.968;2023-03-01T08:11:21;-0.80;99.90
56725;DHT22;42608;52.776;6.968;2023-03-01T08:13:49;-0.80;99.90
56725;DHT22;42608;52.776;6.968;2023-03-01T08:16:15;-0.70;99.90
56725;DHT22;42608;52.776;6.968;2023-03-01T08:18:41;-0.70;99.90
56725;DHT22;42608;52.776;6.968;2023-03-01T08:21:08;-0.60;99.90
56725;DHT22;42608;52.776;6.968;2023-03-01T08:23:34;-0.50;99.90
56725;DHT22;42608;52.776;6.968;2023-03-01T08:26:06;-0.50;99.90
56725;DHT22;42608;52.776;6.968;2023-03-01T08:28:32;-0.40;99.90
56725;DHT22;42608;52.776;6.968;2023-03-01T08:30:58;-0.40;99.90
56725;DHT22;42608;52.776;6.968;2023-03-01T08:33:23;-0.30;99.90
56725;DHT22;42608;52.776;6.968;2023-03-01T08:35:49;-0.30;99.90
56725;DHT22;42608;52.776;6.968;2023-03-01T08:38:14;-0.30;99.90
56725;DHT22;42608;52.776;6.968;2023-03-01T08:40:40;-0.20;99.90
56725;DHT22;42608;52.776;6.968;2023-03-01T08:43:05;-0.10;99.90
56725;DHT22;42608;52.776;6.968;2023-03-01T08:45:31;-0.10;99.90
56725;DHT22;42608;52.776;6.968;2023-03-01T08:47:57;0.00;99.90
56725;DHT22;42608;52.776;6.968;2023-03-01T08:50:23;0.10;99.90
56725;DHT22;42608;52.776;6.968;2023-03-01T08:52:49;0.20;99.90
56725;DHT22;42608;52.776;6.968;2023-03-01T08:55:15;0.30;99.90
56725;DHT22;42608;52.776;6.968;2023-03-01T08:57:42;0.40;99.90
56725;DHT22;42608;52.776;6.968;2023-03-01T09:00:08;0.40;99.90
56725;DHT22;42608;52.776;6.968;2023-03-01T09:02:34;0.50;99.90
56725;DHT22;42608;52.776;6.968;2023-03-01T09:05:00;0.70;99.90
56725;DHT22;42608;52.776;6.968;2023-03-01T09:07:26;0.80;99.90
56725;DHT22;42608;52.776;6.968;2023-03-01T09:09:53;0.90;99.90
56725;DHT22;42608;52.776;6.968;2023-03-01T09:12:19;1.00;99.90
56725;DHT22;42608;52.776;6.968;2023-03-01T09:14:45;1.10;99.90
56725;DHT22;42608;52.776;6.968;2023-03-01T09:17:10;1.10;99.90
56725;DHT22;42608;52.776;6.968;2023-03-01T09:19:36;1.20;99.90
56725;DHT22;42608;52.776;6.968;2023-03-01T09:22:02;1.30;99.90
56725;DHT22;42608;52.776;6.968;2023-03-01T09:24:28;1.40;99.90
56725;DHT22;42608;52.776;6.968;2023-03-01T09:26:54;1.50;99.90
56725;DHT22;42608;52.776;6.968;2023-03-01T09:29:21;1.60;99.90
56725;DHT22;42608;52.776;6.968;2023-03-01T09:31:46;1.60;99.90
56725;DHT22;42608;52.776;6.968;2023-03-01T09:34:12;1.70;99.90
56725;DHT22;42608;52.776;6.968;2023-03-01T09:36:41;1.80;99.90
56725;DHT22;42608;52.776;6.968;2023-03-01T09:39:06;1.90;99.90
56725;DHT22;42608;52.776;6.968;2023-03-01T09:44:27;2.00;99.90
56725;DHT22;42608;52.776;6.968;2023-03-01T09:46:55;2.10;99.90
56725;DHT22;42608;52.776;6.968;2023-03-01T09:49:33;2.20;99.90
56725;DHT22;42608;52.776;6.968;2023-03-01T09:54:24;2.30;99.90
56725;DHT22;42608;52.776;6.968;2023-03-01T09:56:56;2.40;99.90
56725;DHT22;42608;52.776;6.968;2023-03-01T09:59:26;2.50;99.90
56725;DHT22;42608;52.776;6.968;2023-03-01T10:01:59;2.60;99.90
56725;DHT22;42608;52.776;6.968;2023-03-01T10:09:26;2.80;99.90
56725;DHT22;42608;52.776;6.968;2023-03-01T10:11:54;2.80;99.90
56725;DHT22;42608;52.776;6.968;2023-03-01T10:14:30;2.90;99.90
56725;DHT22;42608;52.776;6.968;2023-03-01T10:19:32;3.10;99.90
56725;DHT22;42608;52.776;6.968;2023-03-01T10:22:09;3.10;99.90
56725;DHT22;42608;52.776;6.968;2023-03-01T10:24:36;3.10;99.90
56725;DHT22;42608;52.776;6.968;2023-03-01T10:27:07;3.10;99.90
56725;DHT22;42608;52.776;6.968;2023-03-01T10:29:39;3.10;99.90
56725;DHT22;42608;52.776;6.968;2023-03-01T10:32:06;3.10;99.90
56725;DHT22;42608;52.776;6.968;2023-03-01T10:34:35;3.20;99.90
56725;DHT22;42608;52.776;6.968;2023-03-01T10:37:04;3.40;99.90
56725;DHT22;42608;52.776;6.968;2023-03-01T10:39:33;3.50;99.90
56725;DHT22;42608;52.776;6.968;2023-03-01T10:42:00;3.50;99.90
56725;DHT22;42608;52.776;6.968;2023-03-01T10:44:45;3.60;99.90
56725;DHT22;42608;52.776;6.968;2023-03-01T10:47:19;3.60;99.90
56725;DHT22;42608;52.776;6.968;2023-03-01T10:49:52;3.70;99.90
56725;DHT22;42608;52.776;6.968;2023-03-01T10:52:19;3.90;99.90
56725;DHT22;42608;52.776;6.968;2023-03-01T10:54:56;4.00;99.90
56725;DHT22;42608;52.776;6.968;2023-03-01T10:57:27;4.00;99.90
56725;DHT22;42608;52.776;6.968;2023-03-01T11:00:00;4.00;99.90
56725;DHT22;42608;52.776;6.968;2023-03-01T11:02:29;4.10;99.90
56725;DHT22;42608;52.776;6.968;2023-03-01T11:04:56;4.10;99.90
56725;DHT22;42608;52.776;6.968;2023-03-01T11:07:22;4.10;99.90
56725;DHT22;42608;52.776;6.968;2023-03-01T11:09:48;4.20;99.90
56725;DHT22;42608;52.776;6.968;2023-03-01T11:12:14;4.20;99.90
56725;DHT22;42608;52.776;6.968;2023-03-01T11:14:46;4.30;99.90
56725;DHT22;42608;52.776;6.968;2023-03-01T11:17:16;4.40;99.90
56725;DHT22;42608;52.776;6.968;2023-03-01T11:19:42;4.40;99.90
56725;DHT22;42608;52.776;6.968;2023-03-01T11:22:18;4.50;99.90
56725;DHT22;42608;52.776;6.968;2023-03-01T11:24:51;4.60;99.90
56725;DHT22;42608;52.776;6.968;2023-03-01T11:29:54;4.70;99.90
56725;DHT22;42608;52.776;6.968;2023-03-01T11:32:21;4.70;99.90
56725;DHT22;42608;52.776;6.968;2023-03-01T11:34:56;4.80;99.90
56725;DHT22;42608;52.776;6.968;2023-03-01T11:37:28;4.80;99.90
56725;DHT22;42608;52.776;6.968;2023-03-01T11:44:52;4.90;99.90
56725;DHT22;42608;52.776;6.968;2023-03-01T11:58:13;5.00;99.90
56725;DHT22;42608;52.776;6.968;2023-03-01T12:10:37;5.50;99.90
56725;DHT22;42608;52.776;6.968;2023-03-01T12:15:49;5.60;99.90
56725;DHT22;42608;52.776;6.968;2023-03-01T12:38:44;5.90;99.90
56725;DHT22;42608;52.776;6.968;2023-03-01T12:48:47;6.10;99.90
56725;DHT22;42608;52.776;6.968;2023-03-01T12:51:17;6.10;99.90
56725;DHT22;42608;52.776;6.968;2023-03-01T12:53:48;6.20;99.90
56725;DHT22;42608;52.776;6.968;2023-03-01T12:56:15;6.20;99.90
56725;DHT22;42608;52.776;6.968;2023-03-01T12:58:46;6.10;99.90
56725;DHT22;42608;52.776;6.968;2023-03-01T13:04:26;6.20;99.90
56725;DHT22;42608;52.776;6.968;2023-03-01T13:07:02;6.30;99.90
56725;DHT22;42608;52.776;6.968;2023-03-01T13:09:33;6.40;99.90
56725;DHT22;42608;52.776;6.968;2023-03-01T13:12:00;6.30;99.90
56725;DHT22;42608;52.776;6.968;2023-03-01T13:16:51;6.60;99.90
56725;DHT22;42608;52.776;6.968;2023-03-01T13:21:46;6.70;99.90
56725;DHT22;42608;52.776;6.968;2023-03-01T13:29:44;6.90;99.90
56725;DHT22;42608;52.776;6.968;2023-03-01T13:32:52;7.00;99.90
56725;DHT22;42608;52.776;6.968;2023-03-01T13:37:40;6.90;99.90
56725;DHT22;42608;52.776;6.968;2023-03-01T13:42:46;7.00;99.90
56725;DHT22;42608;52.776;6.968;2023-03-01T13:45:57;7.10;99.90
56725;DHT22;42608;52.776;6.968;2023-03-01T13:47:58;7.10;99.90
56725;DHT22;42608;52.776;6.968;2023-03-01T13:50:27;7.20;99.90
56725;DHT22;42608;52.776;6.968;2023-03-01T13:52:57;7.20;99.90
56725;DHT22;42608;52.776;6.968;2023-03-01T13:58:01;7.20;99.90
56725;DHT22;42608;52.776;6.968;2023-03-01T14:00:32;7.20;99.90
56725;DHT22;42608;52.776;6.968;2023-03-01T14:02:59;7.30;99.90
56725;DHT22;42608;52.776;6.968;2023-03-01T14:05:25;7.30;99.90
56725;DHT22;42608;52.776;6.968;2023-03-01T14:07:53;7.30;99.90
56725;DHT22;42608;52.776;6.968;2023-03-01T14:10:19;7.30;99.90
56725;DHT22;42608;52.776;6.968;2023-03-01T14:15:32;7.30;99.90
56725;DHT22;42608;52.776;6.968;2023-03-01T14:20:37;7.30;99.90
56725;DHT22;42608;52.776;6.968;2023-03-01T14:23:08;7.20;99.90
56725;DHT22;42608;52.776;6.968;2023-03-01T14:25:35;7.20;99.90
56725;DHT22;42608;52.776;6.968;2023-03-01T14:30:43;7.30;99.90
56725;DHT22;42608;52.776;6.968;2023-03-01T14:33:20;7.20;99.90
56725;DHT22;42608;52.776;6.968;2023-03-01T14:36:25;7.30;99.90
56725;DHT22;42608;52.776;6.968;2023-03-01T14:38:45;7.30;99.90
56725;DHT22;42608;52.776;6.968;2023-03-01T14:41:12;7.30;99.90
56725;DHT22;42608;52.776;6.968;2023-03-01T14:43:41;7.40;99.90
56725;DHT22;42608;52.776;6.968;2023-03-01T14:46:22;7.40;99.90
56725;DHT22;42608;52.776;6.968;2023-03-01T14:48:50;7.40;99.90
56725;DHT22;42608;52.776;6.968;2023-03-01T14:51:15;7.40;99.90
56725;DHT22;42608;52.776;6.968;2023-03-01T14:53:41;7.40;99.90
56725;DHT22;42608;52.776;6.968;2023-03-01T14:56:12;7.50;99.90
56725;DHT22;42608;52.776;6.968;2023-03-01T14:58:38;7.50;99.90
56725;DHT22;42608;52.776;6.968;2023-03-01T15:01:04;7.50;99.90
56725;DHT22;42608;52.776;6.968;2023-03-01T15:03:31;7.60;99.90
56725;DHT22;42608;52.776;6.968;2023-03-01T15:05:58;7.60;99.90
56725;DHT22;42608;52.776;6.968;2023-03-01T15:08:25;7.70;99.90
56725;DHT22;42608;52.776;6.968;2023-03-01T15:10:55;7.70;99.90
56725;DHT22;42608;52.776;6.968;2023-03-01T15:13:23;7.70;99.90
56725;DHT22;42608;52.776;6.968;2023-03-01T15:15:49;7.70;99.90
56725;DHT22;42608;52.776;6.968;2023-03-01T15:20:42;7.60;99.90
56725;DHT22;42608;52.776;6.968;2023-03-01T15:23:16;7.60;99.90
56725;DHT22;42608;52.776;6.968;2023-03-01T15:25:44;7.60;99.90
56725;DHT22;42608;52.776;6.968;2023-03-01T15:28:18;7.60;99.90
56725;DHT22;42608;52.776;6.968;2023-03-01T15:30:44;7.50;99.90
56725;DHT22;42608;52.776;6.968;2023-03-01T15:33:17;7.60;99.90
56725;DHT22;42608;52.776;6.968;2023-03-01T15:35:50;7.50;99.90
56725;DHT22;42608;52.776;6.968;2023-03-01T15:41:03;7.50;99.90
56725;DHT22;42608;52.776;6.968;2023-03-01T15:43:43;7.50;99.90
56725;DHT22;42608;52.776;6.968;2023-03-01T15:46:20;7.40;99.90
56725;DHT22;42608;52.776;6.968;2023-03-01T15:48:47;7.50;99.90
56725;DHT22;42608;52.776;6.968;2023-03-01T15:51:14;7.40;99.90
56725;DHT22;42608;52.776;6.968;2023-03-01T15:53:40;7.40;99.90
56725;DHT22;42608;52.776;6.968;2023-03-01T15:56:06;7.40;99.90
56725;DHT22;42608;52.776;6.968;2023-03-01T15:58:32;7.40;99.90
56725;DHT22;42608;52.776;6.968;2023-03-01T16:00:58;7.30;99.90
56725;DHT22;42608;52.776;6.968;2023-03-01T16:03:24;7.30;99.90
56725;DHT22;42608;52.776;6.968;2023-03-01T16:05:50;7.20;99.90
56725;DHT22;42608;52.776;6.968;2023-03-01T16:08:16;7.20;99.90
56725;DHT22;42608;52.776;6.968;2023-03-01T16:10:42;7.10;99.90
56725;DHT22;42608;52.776;6.968;2023-03-01T16:13:11;7.10;99.90
56725;DHT22;42608;52.776;6.968;2023-03-01T16:15:36;7.00;99.90
56725;DHT22;42608;52.776;6.968;2023-03-01T16:18:03;7.10;99.90
56725;DHT22;42608;52.776;6.968;2023-03-01T16:20:30;7.00;99.90
56725;DHT22;42608;52.776;6.968;2023-03-01T16:23:00;7.00;99.90
56725;DHT22;42608;52.776;6.968;2023-03-01T16:25:26;6.90;99.90
56725;DHT22;42608;52.776;6.968;2023-03-01T16:27:52;7.00;99.90
56725;DHT22;42608;52.776;6.968;2023-03-01T16:30:18;6.90;99.90
56725;DHT22;42608;52.776;6.968;2023-03-01T16:32:45;6.80;99.90
56725;DHT22;42608;52.776;6.968;2023-03-01T16:35:11;6.70;99.90
56725;DHT22;42608;52.776;6.968;2023-03-01T16:37:38;6.70;99.90
56725;DHT22;42608;52.776;6.968;2023-03-01T16:40:04;6.60;99.90
56725;DHT22;42608;52.776;6.968;2023-03-01T16:42:36;6.60;99.90
56725;DHT22;42608;52.776;6.968;2023-03-01T16:45:02;6.50;99.90
56725;DHT22;42608;52.776;6.968;2023-03-01T16:47:28;6.50;99.90
56725;DHT22;42608;52.776;6.968;2023-03-01T16:49:54;6.40;99.90
56725;DHT22;42608;52.776;6.968;2023-03-01T16:52:20;6.40;99.90
56725;DHT22;42608;52.776;6.968;2023-03-01T16:54:45;6.30;99.90
56725;DHT22;42608;52.776;6.968;2023-03-01T16:57:11;6.30;99.90
56725;DHT22;42608;52.776;6.968;2023-03-01T16:59:39;6.20;99.90
56725;DHT22;42608;52.776;6.968;2023-03-01T17:02:06;6.10;99.90
56725;DHT22;42608;52.776;6.968;2023-03-01T17:04:36;6.00;99.90
56725;DHT22;42608;52.776;6.968;2023-03-01T17:07:01;6.00;99.90
56725;DHT22;42608;52.776;6.968;2023-03-01T17:09:27;5.90;99.90
56725;DHT22;42608;52.776;6.968;2023-03-01T17:11:53;5.90;99.90
56725;DHT22;42608;52.776;6.968;2023-03-01T17:14:19;5.80;99.90
56725;DHT22;42608;52.776;6.968;2023-03-01T17:16:45;5.80;99.90
56725;DHT22;42608;52.776;6.968;2023-03-01T17:19:11;5.70;99.90
56725;DHT22;42608;52.776;6.968;2023-03-01T17:21:37;5.70;99.90
56725;DHT22;42608;52.776;6.968;2023-03-01T17:24:03;5.60;99.90
56725;DHT22;42608;52.776;6.968;2023-03-01T17:26:29;5.50;99.90
56725;DHT22;42608;52.776;6.968;2023-03-01T17:28:55;5.50;99.90
56725;DHT22;42608;52.776;6.968;2023-03-01T17:31:20;5.40;99.90
56725;DHT22;42608;52.776;6.968;2023-03-01T17:33:46;5.40;99.90
56725;DHT22;42608;52.776;6.968;2023-03-01T17:36:12;5.30;99.90
56725;DHT22;42608;52.776;6.968;2023-03-01T17:38:37;5.30;99.90
56725;DHT22;42608;52.776;6.968;2023-03-01T17:41:03;5.20;99.90
56725;DHT22;42608;52.776;6.968;2023-03-01T17:43:29;5.20;99.90